sensor_id;sensor_type;location;lat;lon;timestamp;pressure;altitude;pressure_sealevel;temperature;humidity
16094;BME280;8151;47.824;12.092;2023-05-12T00:02:23;95978.59;;;10.10;88.16
16094;BME280;8151;47.824;12.092;2023-05-12T00:04:54;95974.28;;;10.09;87.78
16094;BME280;8151;47.824;12.092;2023-05-12T00:07:23;95962.06;;;10.08;87.95
16094;BME280;8151;47.824;12.092;2023-05-12T00:09:51;95972.66;;;10.08;88.53
16094;BME280;8151;47.824;12.092;2023-05-12T00:12:20;95969.00;;;10.09;87.74
16094;BME280;8151;47.824;12.092;2023-05-12T00:14:50;95968.00;;;10.10;88.06
16094;BME280;8151;47.824;12.092;2023-05-12T00:17:18;95970.97;;;10.07;88.05
16094;BME280;8151;47.824;12.092;2023-05-12T00:19:47;95962.41;;;10.05;88.51
16094;BME280;8151;47.824;12.092;2023-05-12T00:22:16;95971.97;;;10.06;88.08
16094;BME280;8151;47.824;12.092;2023-05-12T00:24:44;95970.16;;;10.07;88.37
16094;BME280;8151;47.824;12.092;2023-05-12T00:27:13;95966.69;;;10.06;87.97
16094;BME280;8151;47.824;12.092;2023-05-12T00:29:41;95968.03;;;10.02;87.92
16094;BME280;8151;47.824;12.092;2023-05-12T00:32:13;95963.94;;;9.99;88.42
16094;BME280;8151;47.824;12.092;2023-05-12T00:34:43;95968.56;;;9.97;88.17
16094;BME280;8151;47.824;12.092;2023-05-12T00:37:11;95970.72;;;9.94;87.86
16094;BME280;8151;47.824;12.092;2023-05-12T00:39:40;95957.50;;;9.94;87.95
16094;BME280;8151;47.824;12.092;2023-05-12T00:42:08;95959.41;;;9.85;88.06
16094;BME280;8151;47.824;12.092;2023-05-12T00:44:37;95966.38;;;9.78;88.56
16094;BME280;8151;47.824;12.092;2023-05-12T00:47:07;95956.50;;;9.72;88.55
16094;BME280;8151;47.824;12.092;2023-05-12T00:49:37;95958.97;;;9.73;87.89
16094;BME280;8151;47.824;12.092;2023-05-12T00:52:08;95955.47;;;9.73;87.80
16094;BME280;8151;47.824;12.092;2023-05-12T00:54:37;95943.75;;;9.75;88.12
16094;BME280;8151;47.824;12.092;2023-05-12T00:57:07;95946.22;;;9.77;88.51
16094;BME280;8151;47.824;12.092;2023-05-12T00:59:35;95956.13;;;9.75;88.24
16094;BME280;8151;47.824;12.092;2023-05-12T01:02:04;95945.28;;;9.70;87.77
16094;BME280;8151;47.824;12.092;2023-05-12T01:04:35;95947.06;;;9.69;88.16
16094;BME280;8151;47.824;12.092;2023-05-12T01:07:09;95949.72;;;9.69;87.62
16094;BME280;8151;47.824;12.092;2023-05-12T01:09:39;95948.63;;;9.63;87.56
16094;BME280;8151;47.824;12.092;2023-05-12T01:12:10;95953.06;;;9.63;87.83
16094;BME280;8151;47.824;12.092;2023-05-12T01:14:38;95948.25;;;9.66;87.98
16094;BME280;8151;47.824;12.092;2023-05-12T01:17:10;95946.25;;;9.69;87.96
16094;BME280;8151;47.824;12.092;2023-05-12T01:19:42;95946.63;;;9.65;87.67
16094;BME280;8151;47.824;12.092;2023-05-12T01:22:13;95953.91;;;9.63;87.75
16094;BME280;8151;47.824;12.092;2023-05-12T01:24:45;95954.88;;;9.62;87.44
16094;BME280;8151;47.824;12.092;2023-05-12T01:27:19;95947.47;;;9.58;87.55
16094;BME280;8151;47.824;12.092;2023-05-12T01:29:48;95944.53;;;9.53;87.13
16094;BME280;8151;47.824;12.092;2023-05-12T01:32:17;95949.97;;;9.51;87.94
16094;BME280;8151;47.824;12.092;2023-05-12T01:34:46;95957.06;;;9.51;87.94
16094;BME280;8151;47.824;12.092;2023-05-12T01:37:15;95950.66;;;9.45;87.74
16094;BME280;8151;47.824;12.092;2023-05-12T01:39:44;95953.47;;;9.43;87.71
16094;BME280;8151;47.824;12.092;2023-05-12T01:42:12;95953.63;;;9.42;87.32
16094;BME280;8151;47.824;12.092;2023-05-12T01:44:50;95958.47;;;9.38;87.05
16094;BME280;8151;47.824;12.092;2023-05-12T01:47:18;95952.50;;;9.36;87.11
16094;BME280;8151;47.824;12.092;2023-05-12T01:49:47;95950.22;;;9.33;87.24
16094;BME280;8151;47.824;12.092;2023-05-12T01:52:18;95960.28;;;9.30;86.95
16094;BME280;8151;47.824;12.092;2023-05-12T01:54:46;95943.47;;;9.31;87.50
16094;BME280;8151;47.824;12.092;2023-05-12T01:57:15;95948.56;;;9.32;87.20
16094;BME280;8151;47.824;12.092;2023-05-12T01:59:44;95950.38;;;9.32;86.61
16094;BME280;8151;47.824;12.092;2023-05-12T02:02:14;95945.25;;;9.30;86.74
16094;BME280;8151;47.824;12.092;2023-05-12T02:04:44;95946.44;;;9.27;86.93
16094;BME280;8151;47.824;12.092;2023-05-12T02:07:12;95946.94;;;9.23;86.82
16094;BME280;8151;47.824;12.092;2023-05-12T02:09:41;95944.97;;;9.25;86.73
16094;BME280;8151;47.824;12.092;2023-05-12T02:12:11;95952.69;;;9.26;86.57
16094;BME280;8151;47.824;12.092;2023-05-12T02:14:40;95952.41;;;9.21;86.75
16094;BME280;8151;47.824;12.092;2023-05-12T02:17:08;95951.75;;;9.19;86.75
16094;BME280;8151;47.824;12.092;2023-05-12T02:19:38;95949.28;;;9.18;86.78
16094;BME280;8151;47.824;12.092;2023-05-12T02:22:06;95953.38;;;9.20;86.33
16094;BME280;8151;47.824;12.092;2023-05-12T02:24:35;95942.16;;;9.18;86.68
16094;BME280;8151;47.824;12.092;2023-05-12T02:27:03;95944.16;;;9.16;86.31
16094;BME280;8151;47.824;12.092;2023-05-12T02:29:32;95951.59;;;9.13;86.01
16094;BME280;8151;47.824;12.092;2023-05-12T02:32:00;95951.78;;;9.11;86.31
16094;BME280;8151;47.824;12.092;2023-05-12T02:34:28;95953.72;;;9.09;86.40
16094;BME280;8151;47.824;12.092;2023-05-12T02:36:58;95951.09;;;9.09;85.95
16094;BME280;8151;47.824;12.092;2023-05-12T02:39:27;95951.44;;;9.06;86.38
16094;BME280;8151;47.824;12.092;2023-05-12T02:41:55;95950.97;;;9.02;86.44
16094;BME280;8151;47.824;12.092;2023-05-12T02:44:24;95960.03;;;9.00;86.03
16094;BME280;8151;47.824;12.092;2023-05-12T02:46:52;95955.09;;;8.97;86.01
16094;BME280;8151;47.824;12.092;2023-05-12T02:49:20;95963.81;;;8.97;85.62
16094;BME280;8151;47.824;12.092;2023-05-12T02:51:49;95959.56;;;8.96;85.87
16094;BME280;8151;47.824;12.092;2023-05-12T02:54:19;95953.78;;;8.93;85.96
16094;BME280;8151;47.824;12.092;2023-05-12T02:56:47;95952.97;;;8.92;86.09
16094;BME280;8151;47.824;12.092;2023-05-12T02:59:15;95953.63;;;8.94;85.54
16094;BME280;8151;47.824;12.092;2023-05-12T03:01:45;95955.09;;;8.97;85.54
16094;BME280;8151;47.824;12.092;2023-05-12T03:04:13;95964.66;;;8.98;85.73
16094;BME280;8151;47.824;12.092;2023-05-12T03:06:42;95960.53;;;8.95;85.86
16094;BME280;8151;47.824;12.092;2023-05-12T03:09:13;95964.66;;;8.98;85.31
16094;BME280;8151;47.824;12.092;2023-05-12T03:11:43;95958.53;;;8.97;85.67
16094;BME280;8151;47.824;12.092;2023-05-12T03:14:14;95959.72;;;8.95;85.97
16094;BME280;8151;47.824;12.092;2023-05-12T03:16:42;95956.59;;;8.91;85.75
16094;BME280;8151;47.824;12.092;2023-05-12T03:19:13;95960.03;;;8.92;85.70
16094;BME280;8151;47.824;12.092;2023-05-12T03:21:42;95956.75;;;8.90;86.06
16094;BME280;8151;47.824;12.092;2023-05-12T03:24:10;95951.47;;;8.90;85.95
16094;BME280;8151;47.824;12.092;2023-05-12T03:26:38;95959.72;;;8.95;85.93
16094;BME280;8151;47.824;12.092;2023-05-12T03:29:08;95956.75;;;8.98;85.97
16094;BME280;8151;47.824;12.092;2023-05-12T03:31:36;95960.03;;;9.00;86.25
16094;BME280;8151;47.824;12.092;2023-05-12T03:34:05;95958.38;;;8.99;85.79
16094;BME280;8151;47.824;12.092;2023-05-12T03:36:33;95956.75;;;8.98;86.48
16094;BME280;8151;47.824;12.092;2023-05-12T03:39:03;95965.47;;;8.98;85.68
16094;BME280;8151;47.824;12.092;2023-05-12T03:41:32;95965.47;;;8.98;86.37
16094;BME280;8151;47.824;12.092;2023-05-12T03:44:00;95966.28;;;8.99;85.82
16094;BME280;8151;47.824;12.092;2023-05-12T03:46:30;95962.03;;;8.98;86.41
16094;BME280;8151;47.824;12.092;2023-05-12T03:48:59;95960.22;;;8.98;86.15
16094;BME280;8151;47.824;12.092;2023-05-12T03:51:27;95961.66;;;9.01;85.73
16094;BME280;8151;47.824;12.092;2023-05-12T03:53:56;95961.34;;;9.04;85.99
16094;BME280;8151;47.824;12.092;2023-05-12T03:56:25;95953.72;;;9.09;86.01
16094;BME280;8151;47.824;12.092;2023-05-12T03:58:55;95960.34;;;9.13;85.52
16094;BME280;8151;47.824;12.092;2023-05-12T04:01:24;95967.41;;;9.13;86.09
16094;BME280;8151;47.824;12.092;2023-05-12T04:03:53;95971.88;;;9.12;85.81
16094;BME280;8151;47.824;12.092;2023-05-12T04:06:22;95972.69;;;9.13;85.90
16094;BME280;8151;47.824;12.092;2023-05-12T04:08:50;95972.69;;;9.13;85.51
16094;BME280;8151;47.824;12.092;2023-05-12T04:11:19;95969.25;;;9.12;85.27
16094;BME280;8151;47.824;12.092;2023-05-12T04:13:47;95973.88;;;9.10;85.40
16094;BME280;8151;47.824;12.092;2023-05-12T04:16:16;95974.84;;;9.09;85.30
16094;BME280;8151;47.824;12.092;2023-05-12T04:18:45;95974.38;;;9.05;86.06
16094;BME280;8151;47.824;12.092;2023-05-12T04:21:19;95977.19;;;9.04;85.68
16094;BME280;8151;47.824;12.092;2023-05-12T04:23:50;95972.22;;;9.01;85.65
16094;BME280;8151;47.824;12.092;2023-05-12T04:26:18;95979.34;;;9.00;85.99
16094;BME280;8151;47.824;12.092;2023-05-12T04:28:48;95981.16;;;9.00;85.83
16094;BME280;8151;47.824;12.092;2023-05-12T04:31:16;95980.97;;;9.01;85.85
16094;BME280;8151;47.824;12.092;2023-05-12T04:33:45;95983.94;;;8.98;86.10
16094;BME280;8151;47.824;12.092;2023-05-12T04:36:14;95988.56;;;8.96;85.61
16094;BME280;8151;47.824;12.092;2023-05-12T04:38:44;95988.22;;;8.99;85.84
16094;BME280;8151;47.824;12.092;2023-05-12T04:41:15;95988.72;;;9.03;86.00
16094;BME280;8151;47.824;12.092;2023-05-12T04:43:43;95990.53;;;9.02;85.77
16094;BME280;8151;47.824;12.092;2023-05-12T04:46:19;96000.94;;;9.04;85.75
16094;BME280;8151;47.824;12.092;2023-05-12T04:48:48;95999.75;;;9.06;85.67
16094;BME280;8151;47.824;12.092;2023-05-12T04:51:16;95996.81;;;9.10;85.79
16094;BME280;8151;47.824;12.092;2023-05-12T04:53:46;96002.72;;;9.12;86.17
16094;BME280;8151;47.824;12.092;2023-05-12T04:56:14;95999.09;;;9.13;85.98
16094;BME280;8151;47.824;12.092;2023-05-12T04:58:43;96000.75;;;9.14;85.89
16094;BME280;8151;47.824;12.092;2023-05-12T05:01:11;96002.88;;;9.18;86.40
16094;BME280;8151;47.824;12.092;2023-05-12T05:03:40;95998.56;;;9.25;86.05
16094;BME280;8151;47.824;12.092;2023-05-12T05:06:09;96002.00;;;9.34;86.18
16094;BME280;8151;47.824;12.092;2023-05-12T05:08:37;95997.88;;;9.40;85.69
16094;BME280;8151;47.824;12.092;2023-05-12T05:11:07;95996.72;;;9.42;86.18
16094;BME280;8151;47.824;12.092;2023-05-12T05:13:36;96006.13;;;9.45;86.02
16094;BME280;8151;47.824;12.092;2023-05-12T05:16:05;96000.31;;;9.50;85.92
16094;BME280;8151;47.824;12.092;2023-05-12T05:18:34;96008.56;;;9.55;85.96
16094;BME280;8151;47.824;12.092;2023-05-12T05:21:03;96004.56;;;9.59;86.18
16094;BME280;8151;47.824;12.092;2023-05-12T05:23:32;96009.53;;;9.62;86.26
16094;BME280;8151;47.824;12.092;2023-05-12T05:26:00;96013.00;;;9.62;85.74
16094;BME280;8151;47.824;12.092;2023-05-12T05:28:30;96009.03;;;9.58;86.20
16094;BME280;8151;47.824;12.092;2023-05-12T05:30:59;96007.22;;;9.59;86.24
16094;BME280;8151;47.824;12.092;2023-05-12T05:33:27;96008.69;;;9.61;86.35
16094;BME280;8151;47.824;12.092;2023-05-12T05:35:56;96006.72;;;9.63;86.42
16094;BME280;8151;47.824;12.092;2023-05-12T05:38:24;96012.28;;;9.69;85.84
16094;BME280;8151;47.824;12.092;2023-05-12T05:40:53;95999.91;;;9.69;85.81
16094;BME280;8151;47.824;12.092;2023-05-12T05:43:22;96003.38;;;9.70;86.04
16094;BME280;8151;47.824;12.092;2023-05-12T05:45:51;96005.84;;;9.71;85.84
16094;BME280;8151;47.824;12.092;2023-05-12T05:48:22;96012.63;;;9.74;85.93
16094;BME280;8151;47.824;12.092;2023-05-12T05:50:51;96004.16;;;9.78;85.89
16094;BME280;8151;47.824;12.092;2023-05-12T05:53:19;96013.06;;;9.85;85.80
16094;BME280;8151;47.824;12.092;2023-05-12T05:55:49;96004.44;;;9.92;86.15
16094;BME280;8151;47.824;12.092;2023-05-12T05:58:17;96005.91;;;9.94;86.19
16094;BME280;8151;47.824;12.092;2023-05-12T06:00:47;96004.22;;;10.01;85.37
16094;BME280;8151;47.824;12.092;2023-05-12T06:03:17;96009.47;;;10.10;85.68
16094;BME280;8151;47.824;12.092;2023-05-12T06:05:47;96010.09;;;10.20;85.69
16094;BME280;8151;47.824;12.092;2023-05-12T06:08:15;96014.28;;;10.29;85.65
16094;BME280;8151;47.824;12.092;2023-05-12T06:10:44;96016.94;;;10.37;85.60
16094;BME280;8151;47.824;12.092;2023-05-12T06:13:15;96014.41;;;10.44;85.52
16094;BME280;8151;47.824;12.092;2023-05-12T06:15:44;96008.78;;;10.47;85.35
16094;BME280;8151;47.824;12.092;2023-05-12T06:18:14;96008.41;;;10.50;85.25
16094;BME280;8151;47.824;12.092;2023-05-12T06:20:44;96007.06;;;10.54;85.38
16094;BME280;8151;47.824;12.092;2023-05-12T06:23:15;96014.47;;;10.59;85.52
16094;BME280;8151;47.824;12.092;2023-05-12T06:25:44;96012.09;;;10.64;85.46
16094;BME280;8151;47.824;12.092;2023-05-12T06:28:16;96018.69;;;10.68;84.94
16094;BME280;8151;47.824;12.092;2023-05-12T06:30:44;96018.50;;;10.70;84.76
16094;BME280;8151;47.824;12.092;2023-05-12T06:33:15;96019.34;;;10.70;85.06
16094;BME280;8151;47.824;12.092;2023-05-12T06:35:45;96020.16;;;10.71;84.77
16094;BME280;8151;47.824;12.092;2023-05-12T06:38:15;96023.47;;;10.73;84.90
16094;BME280;8151;47.824;12.092;2023-05-12T06:40:43;96020.44;;;10.76;84.69
16094;BME280;8151;47.824;12.092;2023-05-12T06:43:11;96018.09;;;10.81;84.89
16094;BME280;8151;47.824;12.092;2023-05-12T06:45:40;96027.63;;;10.90;84.37
16094;BME280;8151;47.824;12.092;2023-05-12T06:48:10;96028.34;;;10.99;84.29
16094;BME280;8151;47.824;12.092;2023-05-12T06:50:38;96021.19;;;11.08;84.40
16094;BME280;8151;47.824;12.092;2023-05-12T06:53:09;96019.25;;;11.16;83.96
16094;BME280;8151;47.824;12.092;2023-05-12T06:55:38;96022.03;;;11.23;83.86
16094;BME280;8151;47.824;12.092;2023-05-12T06:58:06;96018.94;;;11.34;83.93
16094;BME280;8151;47.824;12.092;2023-05-12T07:00:35;96020.47;;;11.43;83.58
16094;BME280;8151;47.824;12.092;2023-05-12T07:03:03;96019.41;;;11.53;83.46
16094;BME280;8151;47.824;12.092;2023-05-12T07:05:39;96018.66;;;11.59;83.34
16094;BME280;8151;47.824;12.092;2023-05-12T07:08:09;96021.41;;;11.66;83.41
16094;BME280;8151;47.824;12.092;2023-05-12T07:10:37;96016.66;;;11.76;82.87
16094;BME280;8151;47.824;12.092;2023-05-12T07:13:06;96020.84;;;11.85;82.82
16094;BME280;8151;47.824;12.092;2023-05-12T07:15:34;96020.13;;;11.91;82.79
16094;BME280;8151;47.824;12.092;2023-05-12T07:18:03;96017.75;;;11.96;82.76
16094;BME280;8151;47.824;12.092;2023-05-12T07:20:32;96015.38;;;12.01;82.69
16094;BME280;8151;47.824;12.092;2023-05-12T07:23:00;96016.44;;;12.07;82.44
16094;BME280;8151;47.824;12.092;2023-05-12T07:25:30;96014.63;;;12.08;82.31
16094;BME280;8151;47.824;12.092;2023-05-12T07:27:59;96019.72;;;12.09;82.23
16094;BME280;8151;47.824;12.092;2023-05-12T07:30:27;96024.69;;;12.12;82.15
16094;BME280;8151;47.824;12.092;2023-05-12T07:32:56;96014.88;;;12.13;81.95
16094;BME280;8151;47.824;12.092;2023-05-12T07:35:25;96016.16;;;12.17;81.92
16094;BME280;8151;47.824;12.092;2023-05-12T07:37:53;96017.41;;;12.21;81.99
16094;BME280;8151;47.824;12.092;2023-05-12T07:40:22;96012.13;;;12.21;81.83
16094;BME280;8151;47.824;12.092;2023-05-12T07:42:52;96014.22;;;12.26;81.52
16094;BME280;8151;47.824;12.092;2023-05-12T07:45:21;96018.97;;;12.30;81.45
16094;BME280;8151;47.824;12.092;2023-05-12T07:47:50;96020.22;;;12.34;81.33
16094;BME280;8151;47.824;12.092;2023-05-12T07:50:19;96018.84;;;12.38;81.18
16094;BME280;8151;47.824;12.092;2023-05-12T07:52:49;96013.78;;;12.44;80.97
16094;BME280;8151;47.824;12.092;2023-05-12T07:55:19;96014.25;;;12.47;80.96
16094;BME280;8151;47.824;12.092;2023-05-12T07:57:48;96016.78;;;12.55;80.67
16094;BME280;8151;47.824;12.092;2023-05-12T08:00:19;96015.47;;;12.66;80.60
16094;BME280;8151;47.824;12.092;2023-05-12T08:02:48;96015.78;;;12.78;80.42
16094;BME280;8151;47.824;12.092;2023-05-12T08:05:18;96022.78;;;12.86;80.01
16094;BME280;8151;47.824;12.092;2023-05-12T08:07:57;96023.09;;;12.97;79.93
16094;BME280;8151;47.824;12.092;2023-05-12T08:10:25;96025.97;;;13.03;79.78
16094;BME280;8151;47.824;12.092;2023-05-12T08:12:56;96018.06;;;13.09;79.53
16094;BME280;8151;47.824;12.092;2023-05-12T08:15:25;96019.56;;;13.18;79.18
16094;BME280;8151;47.824;12.092;2023-05-12T08:17:54;96017.88;;;13.32;79.08
16094;BME280;8151;47.824;12.092;2023-05-12T08:20:22;96006.88;;;13.42;78.64
16094;BME280;8151;47.824;12.092;2023-05-12T08:22:51;96011.22;;;13.50;79.29
16094;BME280;8151;47.824;12.092;2023-05-12T08:25:19;96016.81;;;13.62;79.16
16094;BME280;8151;47.824;12.092;2023-05-12T08:27:49;96011.78;;;13.80;78.52
16094;BME280;8151;47.824;12.092;2023-05-12T08:30:17;96009.81;;;13.89;78.58
16094;BME280;8151;47.824;12.092;2023-05-12T08:32:48;96012.09;;;13.98;78.31
16094;BME280;8151;47.824;12.092;2023-05-12T08:35:17;96010.69;;;14.09;78.33
16094;BME280;8151;47.824;12.092;2023-05-12T08:37:46;96010.53;;;14.17;78.01
16094;BME280;8151;47.824;12.092;2023-05-12T08:40:20;96009.06;;;14.15;77.68
16094;BME280;8151;47.824;12.092;2023-05-12T08:42:53;96020.56;;;14.22;77.51
16094;BME280;8151;47.824;12.092;2023-05-12T08:45:28;96013.81;;;14.26;77.30
16094;BME280;8151;47.824;12.092;2023-05-12T08:47:58;96014.28;;;14.36;77.01
16094;BME280;8151;47.824;12.092;2023-05-12T08:50:29;96009.78;;;14.44;76.86
16094;BME280;8151;47.824;12.092;2023-05-12T08:53:01;96010.19;;;14.41;76.45
16094;BME280;8151;47.824;12.092;2023-05-12T08:55:32;96009.59;;;14.38;76.82
16094;BME280;8151;47.824;12.092;2023-05-12T08:58:02;96007.94;;;14.37;76.82
16094;BME280;8151;47.824;12.092;2023-05-12T09:00:31;96004.25;;;14.38;76.57
16094;BME280;8151;47.824;12.092;2023-05-12T09:03:05;96008.16;;;14.43;76.57
16094;BME280;8151;47.824;12.092;2023-05-12T09:05:35;96013.09;;;14.52;76.28
16094;BME280;8151;47.824;12.092;2023-05-12T09:08:06;96006.53;;;14.48;76.14
16094;BME280;8151;47.824;12.092;2023-05-12T09:10:36;96007.97;;;14.51;76.23
16094;BME280;8151;47.824;12.092;2023-05-12T09:13:12;95999.34;;;14.42;76.05
16094;BME280;8151;47.824;12.092;2023-05-12T09:15:43;96006.09;;;14.38;76.25
16094;BME280;8151;47.824;12.092;2023-05-12T09:18:14;96002.41;;;14.39;76.32
16094;BME280;8151;47.824;12.092;2023-05-12T09:20:42;96007.78;;;14.52;76.24
16094;BME280;8151;47.824;12.092;2023-05-12T09:23:16;96003.31;;;14.66;76.10
16094;BME280;8151;47.824;12.092;2023-05-12T09:25:45;96004.56;;;14.84;75.73
16094;BME280;8151;47.824;12.092;2023-05-12T09:28:14;96001.50;;;14.93;75.13
16094;BME280;8151;47.824;12.092;2023-05-12T09:30:42;96004.78;;;14.95;74.77
16094;BME280;8151;47.824;12.092;2023-05-12T09:33:13;96000.06;;;15.11;74.77
16094;BME280;8151;47.824;12.092;2023-05-12T09:35:43;95995.13;;;15.28;74.57
16094;BME280;8151;47.824;12.092;2023-05-12T09:38:12;96000.44;;;15.48;74.26
16094;BME280;8151;47.824;12.092;2023-05-12T09:40:41;95996.50;;;15.64;73.65
16094;BME280;8151;47.824;12.092;2023-05-12T09:43:10;95993.00;;;15.70;73.53
16094;BME280;8151;47.824;12.092;2023-05-12T09:45:41;95996.50;;;15.77;73.19
16094;BME280;8151;47.824;12.092;2023-05-12T09:48:14;96001.19;;;15.88;72.76
16094;BME280;8151;47.824;12.092;2023-05-12T09:50:45;95995.59;;;15.97;72.49
16094;BME280;8151;47.824;12.092;2023-05-12T09:53:15;95989.41;;;16.03;72.34
16094;BME280;8151;47.824;12.092;2023-05-12T09:55:46;95994.56;;;16.04;72.00
16094;BME280;8151;47.824;12.092;2023-05-12T09:58:15;95987.81;;;16.02;71.81
16094;BME280;8151;47.824;12.092;2023-05-12T10:00:44;95995.19;;;16.00;71.47
16094;BME280;8151;47.824;12.092;2023-05-12T10:03:19;95993.34;;;16.00;71.35
16094;BME280;8151;47.824;12.092;2023-05-12T10:05:52;95986.34;;;16.06;70.92
16094;BME280;8151;47.824;12.092;2023-05-12T10:08:24;95988.16;;;16.12;70.68
16094;BME280;8151;47.824;12.092;2023-05-12T10:10:55;95995.91;;;16.20;70.33
16094;BME280;8151;47.824;12.092;2023-05-12T10:13:24;95990.16;;;16.23;70.27
16094;BME280;8151;47.824;12.092;2023-05-12T10:15:55;95984.97;;;16.28;70.14
16094;BME280;8151;47.824;12.092;2023-05-12T10:18:26;95996.03;;;16.39;69.94
16094;BME280;8151;47.824;12.092;2023-05-12T10:20:56;95990.03;;;16.50;69.53
16094;BME280;8151;47.824;12.092;2023-05-12T10:23:27;95990.78;;;16.57;69.11
16094;BME280;8151;47.824;12.092;2023-05-12T10:25:56;95987.03;;;16.65;69.01
16094;BME280;8151;47.824;12.092;2023-05-12T10:28:28;95987.44;;;16.68;68.89
16094;BME280;8151;47.824;12.092;2023-05-12T10:30:57;95991.09;;;16.74;68.89
16094;BME280;8151;47.824;12.092;2023-05-12T10:33:28;95988.38;;;16.81;68.64
16094;BME280;8151;47.824;12.092;2023-05-12T10:35:56;95993.50;;;16.89;68.14
16094;BME280;8151;47.824;12.092;2023-05-12T10:38:24;95986.88;;;16.91;67.76
16094;BME280;8151;47.824;12.092;2023-05-12T10:40:57;95982.81;;;16.89;67.41
16094;BME280;8151;47.824;12.092;2023-05-12T10:43:27;95980.28;;;16.94;66.93
16094;BME280;8151;47.824;12.092;2023-05-12T10:46:14;95990.53;;;16.97;66.01
16094;BME280;8151;47.824;12.092;2023-05-12T10:48:53;95995.03;;;17.03;65.69
16094;BME280;8151;47.824;12.092;2023-05-12T10:51:23;95990.44;;;17.10;66.00
16094;BME280;8151;47.824;12.092;2023-05-12T10:53:55;95993.88;;;17.18;65.78
16094;BME280;8151;47.824;12.092;2023-05-12T10:56:26;95990.75;;;17.21;65.76
16094;BME280;8151;47.824;12.092;2023-05-12T10:59:06;95988.28;;;17.19;65.16
16094;BME280;8151;47.824;12.092;2023-05-12T11:01:36;95997.97;;;17.20;65.68
16094;BME280;8151;47.824;12.092;2023-05-12T11:04:11;95994.50;;;17.20;65.56
16094;BME280;8151;47.824;12.092;2023-05-12T11:06:41;95988.69;;;17.23;65.51
16094;BME280;8151;47.824;12.092;2023-05-12T11:09:13;96000.81;;;17.25;65.55
16094;BME280;8151;47.824;12.092;2023-05-12T11:11:43;95998.34;;;17.24;65.68
16094;BME280;8151;47.824;12.092;2023-05-12T11:14:14;96003.69;;;17.24;65.73
16094;BME280;8151;47.824;12.092;2023-05-12T11:16:43;96002.50;;;17.20;65.67
16094;BME280;8151;47.824;12.092;2023-05-12T11:19:14;96003.09;;;17.22;65.33
16094;BME280;8151;47.824;12.092;2023-05-12T11:21:45;96009.03;;;17.24;65.23
16094;BME280;8151;47.824;12.092;2023-05-12T11:24:15;96001.41;;;17.27;65.10
16094;BME280;8151;47.824;12.092;2023-05-12T11:26:43;96005.03;;;17.33;65.12
16094;BME280;8151;47.824;12.092;2023-05-12T11:29:12;96000.06;;;17.37;64.71
16094;BME280;8151;47.824;12.092;2023-05-12T11:31:40;96001.34;;;17.34;64.47
16094;BME280;8151;47.824;12.092;2023-05-12T11:34:20;95996.38;;;17.38;64.17
16094;BME280;8151;47.824;12.092;2023-05-12T11:36:51;95988.13;;;17.39;64.48
16094;BME280;8151;47.824;12.092;2023-05-12T11:39:24;95996.97;;;17.40;64.56
16094;BME280;8151;47.824;12.092;2023-05-12T11:41:53;95994.69;;;17.43;64.18
16094;BME280;8151;47.824;12.092;2023-05-12T11:44:35;95995.69;;;17.42;64.29
16094;BME280;8151;47.824;12.092;2023-05-12T11:47:11;95997.34;;;17.43;63.64
16094;BME280;8151;47.824;12.092;2023-05-12T11:49:46;95998.53;;;17.47;63.69
16094;BME280;8151;47.824;12.092;2023-05-12T11:52:16;95994.59;;;17.50;63.66
16094;BME280;8151;47.824;12.092;2023-05-12T11:54:49;95996.47;;;17.49;63.61
16094;BME280;8151;47.824;12.092;2023-05-12T11:57:28;95993.78;;;17.49;63.23
16094;BME280;8151;47.824;12.092;2023-05-12T11:59:59;95998.94;;;17.51;63.65
16094;BME280;8151;47.824;12.092;2023-05-12T12:02:28;96005.75;;;17.47;63.75
16094;BME280;8151;47.824;12.092;2023-05-12T12:04:58;96005.59;;;17.42;63.85
16094;BME280;8151;47.824;12.092;2023-05-12T12:07:28;96009.16;;;17.36;64.05
16094;BME280;8151;47.824;12.092;2023-05-12T12:09:58;96006.50;;;17.29;64.15
16094;BME280;8151;47.824;12.092;2023-05-12T12:12:31;96015.41;;;17.23;64.04
16094;BME280;8151;47.824;12.092;2023-05-12T12:15:00;96010.13;;;17.16;64.06
16094;BME280;8151;47.824;12.092;2023-05-12T12:17:31;96010.19;;;17.09;64.24
16094;BME280;8151;47.824;12.092;2023-05-12T12:20:01;96019.53;;;17.00;64.50
16094;BME280;8151;47.824;12.092;2023-05-12T12:22:30;96009.91;;;16.92;64.53
16094;BME280;8151;47.824;12.092;2023-05-12T12:25:00;96014.03;;;16.88;64.52
16094;BME280;8151;47.824;12.092;2023-05-12T12:27:32;96016.75;;;16.82;64.64
16094;BME280;8151;47.824;12.092;2023-05-12T12:30:01;96018.00;;;16.79;64.54
16094;BME280;8151;47.824;12.092;2023-05-12T12:32:29;96011.00;;;16.78;64.40
16094;BME280;8151;47.824;12.092;2023-05-12T12:34:58;96012.03;;;16.77;64.11
16094;BME280;8151;47.824;12.092;2023-05-12T12:37:31;96012.84;;;16.78;64.16
16094;BME280;8151;47.824;12.092;2023-05-12T12:39:59;96017.38;;;16.77;63.95
16094;BME280;8151;47.824;12.092;2023-05-12T12:42:34;96010.00;;;16.72;63.83
16094;BME280;8151;47.824;12.092;2023-05-12T12:45:04;96011.06;;;16.71;63.56
16094;BME280;8151;47.824;12.092;2023-05-12T12:47:35;96018.03;;;16.72;63.57
16094;BME280;8151;47.824;12.092;2023-05-12T12:50:05;96011.66;;;16.73;63.46
16094;BME280;8151;47.824;12.092;2023-05-12T12:52:37;96012.47;;;16.74;63.35
16094;BME280;8151;47.824;12.092;2023-05-12T12:55:06;96019.47;;;16.75;63.65
16094;BME280;8151;47.824;12.092;2023-05-12T12:57:38;96017.59;;;16.76;63.79
16094;BME280;8151;47.824;12.092;2023-05-12T13:00:08;96013.88;;;16.77;63.75
16094;BME280;8151;47.824;12.092;2023-05-12T13:02:37;96017.38;;;16.77;63.68
16094;BME280;8151;47.824;12.092;2023-05-12T13:05:07;96010.19;;;16.78;63.52
16094;BME280;8151;47.824;12.092;2023-05-12T13:07:36;96020.28;;;16.76;63.51
16094;BME280;8151;47.824;12.092;2023-05-12T13:10:06;96011.44;;;16.75;63.64
16094;BME280;8151;47.824;12.092;2023-05-12T13:12:35;96010.41;;;16.76;63.88
16094;BME280;8151;47.824;12.092;2023-05-12T13:15:04;96011.00;;;16.78;63.79
16094;BME280;8151;47.824;12.092;2023-05-12T13:17:33;96007.91;;;16.81;63.64
16094;BME280;8151;47.824;12.092;2023-05-12T13:20:02;96008.94;;;16.87;63.51